createdAt,value
2018-07-03T00:00:01.364Z,24.5
2018-07-03T00:01:08.981Z,22.1
2018-07-03T00:02:16.886Z,23.8
2018-07-03T00:03:24.787Z,23.5
2018-07-03T00:05:55.213Z,23.8
2018-07-03T00:07:03.110Z,22.6
2018-07-03T00:08:11.003Z,23.7
2018-07-03T00:09:18.887Z,26.4
2018-07-03T00:10:26.778Z,24.2
2018-07-03T00:11:34.381Z,30.3
2018-07-03T00:12:42.276Z,27.2
2018-07-03T00:13:50.166Z,28
2018-07-03T00:14:57.782Z,28.3
2018-07-03T00:16:05.666Z,29.5
2018-07-03T00:17:13.738Z,28.8
2018-07-03T00:18:21.643Z,29.7
2018-07-03T00:19:29.286Z,31.6
2018-07-03T00:20:36.899Z,33.4
2018-07-03T00:21:44.784Z,34.6
2018-07-03T00:22:52.676Z,32.2
2018-07-03T00:24:00.571Z,29.4
2018-07-03T00:25:08.460Z,39.7
2018-07-03T00:26:16.369Z,38.7
2018-07-03T00:27:24.263Z,41.9
2018-07-03T00:28:32.150Z,39.1
2018-07-03T00:29:40.072Z,36.5
2018-07-03T00:30:47.949Z,35.6
2018-07-03T00:31:55.562Z,40.7
2018-07-03T00:33:03.174Z,38.1
2018-07-03T00:34:11.063Z,36.2
2018-07-03T00:35:18.943Z,37.6
2018-07-03T00:36:26.832Z,43.9
2018-07-03T00:37:34.718Z,44.9
2018-07-03T00:38:42.606Z,44.7
2018-07-03T00:39:50.780Z,46.3
2018-07-03T00:40:58.660Z,42.5
2018-07-03T00:42:06.276Z,37
2018-07-03T00:43:14.160Z,41.8
2018-07-03T00:44:22.052Z,37.7
2018-07-03T00:45:29.953Z,40.6
2018-07-03T00:46:37.842Z,41.7
2018-07-03T00:47:45.176Z,43.8
2018-07-03T00:48:53.065Z,42.5
2018-07-03T00:50:00.971Z,44.7
2018-07-03T00:51:08.861Z,42
2018-07-03T00:52:16.741Z,46.3
2018-07-03T00:53:24.881Z,49.8
2018-07-03T00:54:32.762Z,44
2018-07-03T00:55:40.656Z,45.3
2018-07-03T00:56:48.543Z,44.5
2018-07-03T00:57:56.428Z,48.3
2018-07-03T00:59:04.073Z,47.8
2018-07-03T01:00:11.955Z,46.6
2018-07-03T01:01:19.567Z,51.4
2018-07-03T01:02:27.460Z,46.9
2018-07-03T01:03:35.571Z,42.9
2018-07-03T01:05:51.069Z,48.3
2018-07-03T01:06:58.948Z,46.7
2018-07-03T01:08:06.840Z,46.5
2018-07-03T01:09:14.725Z,42.5
2018-07-03T01:10:22.608Z,49
2018-07-03T01:11:30.243Z,45.2
2018-07-03T01:12:38.179Z,43.9
2018-07-03T01:13:46.054Z,44.9
2018-07-03T01:14:53.669Z,44.5
2018-07-03T01:16:01.557Z,45.1
2018-07-03T01:17:09.188Z,46.4
2018-07-03T01:18:17.079Z,44.6
2018-07-03T01:19:24.961Z,45
2018-07-03T01:20:32.871Z,42.3
2018-07-03T01:21:40.778Z,44.6
2018-07-03T01:22:48.662Z,42.6
2018-07-03T01:23:56.557Z,45.1
2018-07-03T01:25:04.457Z,41
2018-07-03T01:26:12.341Z,42.7
2018-07-03T01:27:20.223Z,39.9
2018-07-03T01:28:28.135Z,40.7
2018-07-03T01:29:36.023Z,42.5
2018-07-03T01:30:42.999Z,43
2018-07-03T01:31:50.887Z,42.1
2018-07-03T01:32:58.767Z,39.6
2018-07-03T01:34:06.381Z,40.3
2018-07-03T01:35:14.264Z,38.2
2018-07-03T01:36:22.152Z,38.6
2018-07-03T01:37:30.041Z,36.7
2018-07-03T01:38:37.926Z,38.5
2018-07-03T01:39:45.812Z,38.6
2018-07-03T01:40:53.700Z,38.3
2018-07-03T01:42:01.607Z,37.6
2018-07-03T01:43:09.486Z,36.1
2018-07-03T01:44:17.366Z,37.1
2018-07-03T01:45:25.248Z,38.7
2018-07-03T01:46:33.135Z,38.7
2018-07-03T01:47:41.022Z,38.4
2018-07-03T01:48:48.946Z,33.7
2018-07-03T01:49:56.279Z,37.4
2018-07-03T01:51:04.167Z,37
2018-07-03T01:52:12.056Z,36.4
2018-07-03T01:53:19.957Z,34.7
2018-07-03T01:54:27.851Z,35.8
2018-07-03T01:55:35.746Z,35.8
2018-07-03T01:56:43.354Z,35.9
2018-07-03T01:57:51.243Z,35.8
2018-07-03T01:58:59.139Z,34.7
2018-07-03T02:00:07.021Z,34.3
2018-07-03T02:01:14.904Z,35
2018-07-03T02:02:22.794Z,33.5
2018-07-03T02:03:30.682Z,36.3
2018-07-03T02:04:38.570Z,33.8
2018-07-03T02:05:46.469Z,33.6
2018-07-03T02:06:54.080Z,33.2
2018-07-03T02:08:01.962Z,32.6
2018-07-03T02:09:09.843Z,33.6
2018-07-03T02:10:17.721Z,31.8
2018-07-03T02:11:25.336Z,34.4
2018-07-03T02:12:32.942Z,33.9
2018-07-03T02:13:40.825Z,33.4
2018-07-03T02:14:48.456Z,33.4
2018-07-03T02:15:56.334Z,31.2
2018-07-03T02:17:04.219Z,33.4
2018-07-03T02:18:12.107Z,33.4
2018-07-03T02:19:19.997Z,32.9
2018-07-03T02:20:27.606Z,33.5
2018-07-03T02:21:35.500Z,31.7
2018-07-03T02:22:43.402Z,32.5
2018-07-03T02:23:51.271Z,32.5
2018-07-03T02:24:58.882Z,33.4
2018-07-03T02:26:06.761Z,33.9
2018-07-03T02:27:14.648Z,34.1
2018-07-03T02:28:22.529Z,33.4
2018-07-03T02:29:29.748Z,33
2018-07-03T02:30:36.684Z,32.4
2018-07-03T02:31:44.508Z,31
2018-07-03T02:32:53.101Z,32.9
2018-07-03T02:34:00.588Z,29.5
2018-07-03T02:35:08.485Z,31
2018-07-03T02:36:16.373Z,30
2018-07-03T02:37:24.253Z,33.2
2018-07-03T02:38:31.865Z,32.7
2018-07-03T02:39:39.758Z,32.5
2018-07-03T02:40:47.643Z,33.2
2018-07-03T02:41:55.531Z,32.1
2018-07-03T02:43:03.410Z,32.1
2018-07-03T02:44:11.307Z,31.6
2018-07-03T02:45:19.208Z,29.9
2018-07-03T02:46:27.094Z,31.6
2018-07-03T02:47:35.016Z,30.3
2018-07-03T02:48:42.678Z,32
2018-07-03T02:49:50.561Z,31.4
2018-07-03T02:50:58.447Z,31.2
2018-07-03T02:52:06.343Z,30.9
2018-07-03T02:53:14.252Z,31.1
2018-07-03T02:54:22.139Z,30.5
2018-07-03T02:55:30.022Z,29.9
2018-07-03T02:56:37.911Z,30.7
2018-07-03T02:57:45.794Z,33.4
2018-07-03T02:58:53.428Z,33.4
2018-07-03T03:00:01.341Z,31.9
2018-07-03T03:01:09.229Z,32.9
2018-07-03T03:02:17.114Z,33
2018-07-03T03:03:24.997Z,33.3
2018-07-03T03:04:32.889Z,33.6
2018-07-03T03:05:40.766Z,33.8
2018-07-03T03:06:48.673Z,33.2
2018-07-03T03:07:56.566Z,34.1
2018-07-03T03:09:04.445Z,34.4
2018-07-03T03:10:12.335Z,33.6
2018-07-03T03:11:20.213Z,34.7
2018-07-03T03:12:28.112Z,33.1
2018-07-03T03:13:35.996Z,33.8
2018-07-03T03:14:43.784Z,33.1
2018-07-03T03:15:51.664Z,33.2
2018-07-03T03:16:59.553Z,33.1
2018-07-03T03:18:07.435Z,33.2
2018-07-03T03:19:15.528Z,33.8
2018-07-03T03:20:23.159Z,33.2
2018-07-03T03:21:31.047Z,33.2
2018-07-03T03:22:38.658Z,31.9
2018-07-03T03:23:46.544Z,33.2
2018-07-03T03:24:54.152Z,33.9
2018-07-03T03:26:02.031Z,33.6
2018-07-03T03:27:09.917Z,32.9
2018-07-03T03:28:17.804Z,30.7
2018-07-03T03:29:25.689Z,33
2018-07-03T03:30:33.681Z,33.7
2018-07-03T03:31:41.372Z,33.4
2018-07-03T03:32:49.261Z,36.9
2018-07-03T03:33:56.877Z,38
2018-07-03T03:35:04.487Z,39.6
2018-07-03T03:36:12.098Z,39.3
2018-07-03T03:37:19.982Z,41.8
2018-07-03T03:38:27.599Z,37.9
2018-07-03T03:39:35.494Z,39.2
2018-07-03T03:40:43.383Z,42.1
2018-07-03T03:41:51.265Z,44.7
2018-07-03T03:42:59.149Z,45.1
2018-07-03T03:44:07.034Z,43.1
2018-07-03T03:45:14.916Z,42.4
2018-07-03T03:46:22.800Z,47.8
2018-07-03T03:47:30.683Z,47.4
2018-07-03T03:48:38.566Z,47.4
2018-07-03T03:50:54.037Z,47.1
2018-07-03T03:52:01.944Z,48.8
2018-07-03T03:53:09.403Z,49.3
2018-07-03T03:54:17.525Z,48.7
2018-07-03T03:55:25.405Z,49.5
2018-07-03T03:56:33.285Z,48.4
2018-07-03T03:57:40.890Z,51.2
2018-07-03T03:58:48.498Z,51.9
2018-07-03T03:59:56.383Z,53
2018-07-03T04:01:04.191Z,56
2018-07-03T04:02:12.101Z,53.9
2018-07-03T04:03:20.228Z,52.9
2018-07-03T04:04:27.837Z,52.8
2018-07-03T04:05:35.720Z,48.7
2018-07-03T04:06:43.328Z,47.2
2018-07-03T04:07:51.210Z,48.7
2018-07-03T04:08:59.105Z,46.6
2018-07-03T04:10:06.986Z,47.5
2018-07-03T04:11:14.599Z,47.2
2018-07-03T04:12:22.477Z,45.7
2018-07-03T04:13:30.092Z,46.8
2018-07-03T04:14:37.980Z,46.7
2018-07-03T04:15:45.873Z,43
2018-07-03T04:16:53.747Z,45.7
2018-07-03T04:18:01.656Z,46.2
2018-07-03T04:19:09.544Z,45.7
2018-07-03T04:20:17.435Z,46.9
2018-07-03T04:21:25.063Z,47
2018-07-03T04:22:32.941Z,47.1
2018-07-03T04:23:40.567Z,48.8
2018-07-03T04:24:48.469Z,47.3
2018-07-03T04:25:56.372Z,47
2018-07-03T04:27:03.987Z,48.1
2018-07-03T04:28:11.865Z,47.4
2018-07-03T04:29:19.750Z,48.2
2018-07-03T04:30:27.640Z,46
2018-07-03T04:31:35.527Z,46
2018-07-03T04:32:43.412Z,46
2018-07-03T04:33:51.293Z,46
2018-07-03T04:34:59.183Z,45
2018-07-03T04:36:07.067Z,46.5
2018-07-03T04:37:14.684Z,47.7
2018-07-03T04:38:22.570Z,42.5
2018-07-03T04:39:30.460Z,47.5
2018-07-03T04:40:38.353Z,50.1
2018-07-03T04:41:45.985Z,43.3
2018-07-03T04:42:53.258Z,46.3
2018-07-03T04:44:01.149Z,51.4
2018-07-03T04:45:09.034Z,50.5
2018-07-03T04:46:16.650Z,47.8
2018-07-03T04:47:24.531Z,47.8
2018-07-03T04:48:32.426Z,45.8
2018-07-03T04:49:40.315Z,50.9
2018-07-03T04:50:48.200Z,48.3
2018-07-03T04:51:56.096Z,49.6
2018-07-03T04:53:03.980Z,52.7
2018-07-03T04:54:11.591Z,56.9
2018-07-03T04:55:19.479Z,53.6
2018-07-03T04:56:27.361Z,55.7
2018-07-03T04:57:35.245Z,48.5
2018-07-03T04:58:42.853Z,54.2
2018-07-03T04:59:50.740Z,49.4
2018-07-03T05:00:58.625Z,51.8
2018-07-03T05:02:06.512Z,54.8
2018-07-03T05:03:14.434Z,50.8
2018-07-03T05:04:22.324Z,55.2
2018-07-03T05:05:29.939Z,55.3
2018-07-03T05:06:37.543Z,54.5
2018-07-03T05:07:45.426Z,48.9
2018-07-03T05:08:53.321Z,61
2018-07-03T05:10:01.218Z,47.3
2018-07-03T05:11:08.643Z,46.4
2018-07-03T05:12:16.278Z,45.5
2018-07-03T05:13:23.893Z,46.7
2018-07-03T05:14:31.784Z,43.2
2018-07-03T05:15:39.668Z,41.8
2018-07-03T05:16:47.558Z,46.7
2018-07-03T05:17:55.437Z,50.5
2018-07-03T05:19:03.322Z,47.6
2018-07-03T05:20:11.207Z,46.7
2018-07-03T05:21:19.089Z,47.5
2018-07-03T05:22:26.975Z,48.8
2018-07-03T05:23:34.856Z,46.5
2018-07-03T05:24:42.763Z,44.9
2018-07-03T05:25:50.682Z,40.6
2018-07-03T05:26:58.568Z,40.3
2018-07-03T05:28:06.193Z,36.9
2018-07-03T05:29:13.530Z,36.1
2018-07-03T05:30:21.436Z,27.1
2018-07-03T05:31:29.409Z,30
2018-07-03T05:32:37.648Z,24.8
2018-07-03T05:33:45.541Z,22.7
2018-07-03T05:34:53.153Z,20.8
2018-07-03T05:36:00.792Z,21.8
2018-07-03T05:37:08.716Z,23.8
2018-07-03T05:38:16.592Z,15.8
2018-07-03T05:39:24.217Z,18.7
2018-07-03T05:40:32.162Z,17.2
2018-07-03T05:41:40.084Z,15.1
2018-07-03T05:42:47.731Z,15.5
2018-07-03T05:43:55.900Z,16.1
2018-07-03T05:45:03.804Z,14.1
2018-07-03T05:46:11.702Z,14.7
2018-07-03T05:47:19.315Z,13.1
2018-07-03T05:48:27.209Z,14.4
2018-07-03T05:49:34.824Z,14.1
2018-07-03T05:50:42.442Z,13.6
2018-07-03T05:51:50.289Z,13
2018-07-03T05:52:58.179Z,15.4
2018-07-03T05:54:06.211Z,13.2
2018-07-03T05:55:14.136Z,13.8
2018-07-03T05:56:22.109Z,15.6
2018-07-03T05:57:29.917Z,10.6
2018-07-03T05:58:37.825Z,14.7
2018-07-03T05:59:45.716Z,13.1
2018-07-03T06:00:53.603Z,11.3
2018-07-03T06:02:01.496Z,10.3
2018-07-03T06:03:09.386Z,12.2
2018-07-03T06:04:17.504Z,11.6
2018-07-03T06:05:25.396Z,8.3
2018-07-03T06:06:33.299Z,7.1
2018-07-03T06:07:41.191Z,2.7
2018-07-03T06:08:49.075Z,8.5
2018-07-03T06:09:56.977Z,7.4
2018-07-03T06:11:04.604Z,8.7
2018-07-03T06:12:12.228Z,8.7
2018-07-03T06:13:20.298Z,10.4
2018-07-03T06:14:28.187Z,5.2
2018-07-03T06:15:36.080Z,7.2
2018-07-03T06:16:43.994Z,11.3
2018-07-03T06:17:51.883Z,9.7
2018-07-03T06:18:59.780Z,9.5
2018-07-03T06:20:07.663Z,8
2018-07-03T06:21:15.554Z,4.4
2018-07-03T06:22:23.666Z,4.2
2018-07-03T06:23:31.569Z,7.3
2018-07-03T06:24:39.199Z,1
2018-07-03T06:25:47.091Z,5.8
2018-07-03T06:26:55.153Z,2.8
2018-07-03T06:28:03.041Z,1.1
2018-07-03T06:30:33.464Z,1.2
2018-07-03T06:31:41.359Z,1
2018-07-03T06:32:49.248Z,1
2018-07-03T06:33:56.853Z,3.9
2018-07-03T06:35:04.896Z,1.8
2018-07-03T06:36:12.789Z,1
2018-07-03T06:37:20.737Z,1
2018-07-03T06:38:28.829Z,6.1
2018-07-03T06:39:36.725Z,2.8
2018-07-03T06:40:44.616Z,1
2018-07-03T06:41:52.518Z,2
2018-07-03T06:43:00.417Z,1
2018-07-03T06:44:08.310Z,1
2018-07-03T06:45:15.945Z,1
2018-07-03T06:46:23.835Z,2.8
2018-07-03T06:47:31.730Z,1
2018-07-03T06:48:39.631Z,1
2018-07-03T06:49:48.369Z,1
2018-07-03T06:50:56.284Z,1
2018-07-03T06:52:03.914Z,1
2018-07-03T06:53:11.805Z,1
2018-07-03T06:54:19.424Z,1
2018-07-03T06:55:27.422Z,1
2018-07-03T06:56:35.319Z,1
2018-07-03T06:57:43.244Z,1
2018-07-03T06:58:50.863Z,1
2018-07-03T06:59:58.758Z,1
2018-07-03T07:01:06.381Z,1
2018-07-03T07:02:14.025Z,1
2018-07-03T07:03:21.925Z,1
2018-07-03T07:04:29.820Z,1
2018-07-03T07:05:37.721Z,1
2018-07-03T07:06:45.865Z,1
2018-07-03T07:07:53.771Z,1
2018-07-03T07:09:01.824Z,1
2018-07-03T07:10:09.857Z,1
2018-07-03T07:11:17.745Z,1
2018-07-03T07:12:25.371Z,1
2018-07-03T07:13:33.281Z,1
2018-07-03T07:14:41.175Z,1
2018-07-03T07:15:48.791Z,1
2018-07-03T07:16:56.702Z,1
2018-07-03T07:18:04.592Z,1
2018-07-03T07:19:12.484Z,1
2018-07-03T07:20:20.382Z,1
2018-07-03T07:21:28.000Z,1
2018-07-03T07:22:35.912Z,1
2018-07-03T07:23:43.533Z,1
2018-07-03T07:24:51.168Z,1
2018-07-03T07:25:59.062Z,1
2018-07-03T07:27:06.954Z,1
2018-07-03T07:28:14.571Z,1
2018-07-03T07:29:22.464Z,1
2018-07-03T07:30:30.104Z,1
2018-07-03T07:31:38.011Z,1
2018-07-03T07:32:45.901Z,1
2018-07-03T07:33:53.795Z,1
2018-07-03T07:35:01.698Z,1
2018-07-03T07:36:09.588Z,1
2018-07-03T07:37:17.489Z,1
2018-07-03T07:38:25.395Z,1
2018-07-03T07:40:55.834Z,1
2018-07-03T07:42:03.738Z,1
2018-07-03T07:43:11.381Z,1
2018-07-03T07:44:19.287Z,1
2018-07-03T07:45:26.907Z,1
2018-07-03T07:46:34.811Z,1
2018-07-03T07:47:42.707Z,1
2018-07-03T07:48:50.604Z,1
2018-07-03T07:49:58.493Z,1
2018-07-03T07:51:06.389Z,1
2018-07-03T07:52:14.276Z,1
2018-07-03T07:53:21.901Z,1
2018-07-03T07:54:29.791Z,1
2018-07-03T07:55:37.696Z,1
2018-07-03T07:56:45.607Z,1
2018-07-03T07:57:53.507Z,1
2018-07-03T07:59:01.421Z,1
2018-07-03T08:00:09.336Z,1
2018-07-03T08:01:17.305Z,1
2018-07-03T08:02:25.208Z,1
2018-07-03T08:03:33.116Z,1
2018-07-03T08:04:41.015Z,1
2018-07-03T08:05:48.912Z,1
2018-07-03T08:06:56.808Z,1
2018-07-03T08:08:04.700Z,1
2018-07-03T08:09:12.598Z,1
2018-07-03T08:10:20.497Z,1
2018-07-03T08:11:28.604Z,1
2018-07-03T08:12:36.235Z,1
2018-07-03T08:13:44.130Z,1
2018-07-03T08:14:52.023Z,1
2018-07-03T08:15:59.918Z,1
2018-07-03T08:17:07.815Z,1
2018-07-03T08:18:15.713Z,1
2018-07-03T08:19:23.617Z,1
2018-07-03T08:20:31.536Z,1
2018-07-03T08:21:39.427Z,1
2018-07-03T08:22:47.330Z,1
2018-07-03T08:23:54.958Z,1
2018-07-03T08:26:25.419Z,1
2018-07-03T08:27:33.553Z,1
2018-07-03T08:28:41.172Z,1
2018-07-03T08:29:49.059Z,1
2018-07-03T08:30:56.957Z,1
2018-07-03T08:32:04.862Z,1
2018-07-03T08:33:12.758Z,1
2018-07-03T08:34:20.377Z,1
2018-07-03T08:35:28.270Z,1
2018-07-03T08:36:36.168Z,1
2018-07-03T08:37:44.124Z,1
2018-07-03T08:38:52.082Z,1
2018-07-03T08:39:59.983Z,1
2018-07-03T08:41:07.894Z,1
2018-07-03T08:42:15.520Z,1
2018-07-03T08:43:23.420Z,1
2018-07-03T08:44:31.040Z,1
2018-07-03T08:45:38.658Z,1
2018-07-03T08:46:46.559Z,1
2018-07-03T08:47:54.456Z,1
2018-07-03T08:49:02.360Z,1
2018-07-03T08:50:10.273Z,1
2018-07-03T08:51:18.175Z,1
2018-07-03T08:52:26.067Z,1
2018-07-03T08:53:33.969Z,1
2018-07-03T08:54:41.865Z,1
2018-07-03T08:55:49.772Z,1
2018-07-03T08:56:57.392Z,1
2018-07-03T08:58:05.288Z,1
2018-07-03T08:59:13.186Z,1
2018-07-03T09:00:21.091Z,1
2018-07-03T09:01:28.985Z,1
2018-07-03T09:02:36.892Z,1
2018-07-03T09:03:44.569Z,1
2018-07-03T09:04:52.530Z,1
2018-07-03T09:06:00.429Z,1
2018-07-03T09:08:15.917Z,1
2018-07-03T09:09:23.821Z,1
2018-07-03T09:10:32.919Z,1
2018-07-03T09:11:40.831Z,1
2018-07-03T09:12:48.726Z,1
2018-07-03T09:13:56.631Z,1
2018-07-03T09:15:04.533Z,1
2018-07-03T09:16:12.435Z,1
2018-07-03T09:17:20.332Z,1
2018-07-03T09:18:28.251Z,1
2018-07-03T09:19:36.153Z,1
2018-07-03T09:20:44.083Z,1
2018-07-03T09:21:51.980Z,1
2018-07-03T09:22:59.898Z,1
2018-07-03T09:24:07.793Z,1
2018-07-03T09:25:15.708Z,1
2018-07-03T09:26:23.625Z,1
2018-07-03T09:27:31.550Z,1
2018-07-03T09:28:39.166Z,1
2018-07-03T09:29:47.092Z,1
2018-07-03T09:30:54.740Z,1
2018-07-03T09:32:02.652Z,1
2018-07-03T09:33:10.568Z,1
2018-07-03T09:34:18.476Z,1
2018-07-03T09:35:26.097Z,1
2018-07-03T09:36:34.007Z,1
2018-07-03T09:37:41.914Z,1
2018-07-03T09:38:49.808Z,1
2018-07-03T09:39:57.162Z,1
2018-07-03T09:41:05.060Z,1
2018-07-03T09:42:12.698Z,1
2018-07-03T09:43:20.606Z,1
2018-07-03T09:44:28.541Z,1
2018-07-03T09:45:36.462Z,1
2018-07-03T09:46:44.357Z,1
2018-07-03T09:47:52.258Z,1
2018-07-03T09:49:00.168Z,1
2018-07-03T09:50:08.065Z,1
2018-07-03T09:51:15.689Z,1
2018-07-03T09:52:23.585Z,1
2018-07-03T09:53:31.216Z,1
2018-07-03T09:54:38.872Z,1
2018-07-03T09:55:46.843Z,1
2018-07-03T09:56:54.744Z,1
2018-07-03T09:58:02.654Z,1
2018-07-03T09:59:10.607Z,1
2018-07-03T10:00:18.520Z,1
2018-07-03T10:01:26.423Z,1
2018-07-03T10:02:34.325Z,1
2018-07-03T10:03:42.230Z,1
2018-07-03T10:04:50.132Z,1
2018-07-03T10:05:58.043Z,1
2018-07-03T10:07:05.942Z,1
2018-07-03T10:08:13.848Z,1
2018-07-03T10:09:21.739Z,1
2018-07-03T10:10:29.634Z,1
2018-07-03T10:11:37.535Z,1
2018-07-03T10:12:45.154Z,1
2018-07-03T10:13:53.048Z,1
2018-07-03T10:15:00.963Z,1
2018-07-03T10:16:08.873Z,1
2018-07-03T10:17:17.343Z,1
2018-07-03T10:18:25.454Z,1
2018-07-03T10:19:33.361Z,1
2018-07-03T10:20:41.263Z,1
2018-07-03T10:21:49.164Z,1
2018-07-03T10:22:57.061Z,1
2018-07-03T10:24:04.959Z,1
2018-07-03T10:25:12.862Z,1
2018-07-03T10:26:20.765Z,1
2018-07-03T10:27:28.665Z,1
2018-07-03T10:28:36.564Z,1
2018-07-03T10:29:44.462Z,1
2018-07-03T10:30:52.371Z,1
2018-07-03T10:31:59.999Z,1
2018-07-03T10:33:07.900Z,1
2018-07-03T10:34:15.807Z,1
2018-07-03T10:35:23.437Z,1
2018-07-03T10:36:31.335Z,1
2018-07-03T10:37:39.252Z,1
2018-07-03T10:38:47.171Z,1
2018-07-03T10:39:55.097Z,1
2018-07-03T10:41:03.041Z,1
2018-07-03T10:42:11.079Z,1
2018-07-03T10:43:18.993Z,1
2018-07-03T10:44:26.919Z,1
2018-07-03T10:45:35.435Z,1
2018-07-03T10:46:43.381Z,1
2018-07-03T10:47:51.009Z,1
2018-07-03T10:48:58.908Z,1
2018-07-03T10:50:06.811Z,1
2018-07-03T10:51:14.447Z,1
2018-07-03T10:52:22.352Z,1
2018-07-03T10:53:30.256Z,1
2018-07-03T10:54:38.163Z,1
2018-07-03T10:55:46.065Z,1
2018-07-03T10:56:53.987Z,1
2018-07-03T10:58:01.887Z,1
2018-07-03T10:59:09.513Z,1
2018-07-03T11:00:17.425Z,1
2018-07-03T11:01:25.052Z,1
2018-07-03T11:02:32.956Z,1
2018-07-03T11:03:40.588Z,1
2018-07-03T11:04:48.502Z,1
2018-07-03T11:05:56.406Z,1
2018-07-03T11:07:04.304Z,1
2018-07-03T11:08:12.204Z,1
2018-07-03T11:09:20.114Z,1
2018-07-03T11:10:27.760Z,1
2018-07-03T11:11:35.665Z,1
2018-07-03T11:12:43.570Z,1
2018-07-03T11:13:51.522Z,1
2018-07-03T11:14:59.682Z,1
2018-07-03T11:16:07.620Z,1
2018-07-03T11:17:15.520Z,1
2018-07-03T11:18:23.420Z,1
2018-07-03T11:19:31.326Z,1
2018-07-03T11:20:39.272Z,1
2018-07-03T11:21:47.178Z,1
2018-07-03T11:22:55.095Z,1
2018-07-03T11:24:03.002Z,1
2018-07-03T11:25:10.921Z,1
2018-07-03T11:26:18.823Z,1
2018-07-03T11:27:26.727Z,1
2018-07-03T11:28:34.635Z,1
2018-07-03T11:29:42.551Z,1
2018-07-03T11:30:50.175Z,1
2018-07-03T11:31:58.113Z,1
2018-07-03T11:33:06.016Z,1
2018-07-03T11:34:13.926Z,1
2018-07-03T11:35:21.563Z,1
2018-07-03T11:36:29.467Z,1
2018-07-03T11:37:37.112Z,1
2018-07-03T11:38:44.815Z,1
2018-07-03T11:39:52.750Z,1
2018-07-03T11:41:00.663Z,1
2018-07-03T11:42:08.301Z,1
2018-07-03T11:43:16.271Z,1
2018-07-03T11:44:24.441Z,1
2018-07-03T11:45:32.351Z,1
2018-07-03T11:46:39.772Z,1
2018-07-03T11:47:47.926Z,1
2018-07-03T11:48:55.827Z,1
2018-07-03T11:50:03.773Z,1
2018-07-03T11:51:11.433Z,1
2018-07-03T11:52:19.332Z,1
2018-07-03T11:53:27.256Z,1
2018-07-03T11:54:35.207Z,1
2018-07-03T11:55:43.107Z,1
2018-07-03T11:56:51.024Z,1
2018-07-03T11:57:58.668Z,1
2018-07-03T11:59:06.294Z,1
2018-07-03T12:00:13.917Z,1
2018-07-03T12:01:22.102Z,1
2018-07-03T12:02:30.079Z,1
2018-07-03T12:03:38.014Z,1
2018-07-03T12:04:45.947Z,1
2018-07-03T12:05:53.865Z,1
2018-07-03T12:07:01.788Z,1
2018-07-03T12:08:09.426Z,1
2018-07-03T12:09:17.350Z,1
2018-07-03T12:10:25.265Z,1
2018-07-03T12:11:33.170Z,1
2018-07-03T12:12:41.085Z,1
2018-07-03T12:13:48.995Z,1
2018-07-03T12:14:56.627Z,1
2018-07-03T12:16:04.576Z,1
2018-07-03T12:17:12.486Z,1
2018-07-03T12:18:20.625Z,1
2018-07-03T12:19:28.566Z,1
2018-07-03T12:20:36.550Z,1
2018-07-03T12:21:44.453Z,1
2018-07-03T12:22:52.080Z,1
2018-07-03T12:23:59.988Z,1
2018-07-03T12:25:07.924Z,1
2018-07-03T12:26:15.570Z,1
2018-07-03T12:27:23.701Z,1
2018-07-03T12:28:31.626Z,1
2018-07-03T12:29:39.527Z,1
2018-07-03T12:30:47.437Z,1
2018-07-03T12:31:55.583Z,1
2018-07-03T12:33:03.820Z,1
2018-07-03T12:34:11.750Z,1
2018-07-03T12:35:19.652Z,1
2018-07-03T12:36:27.573Z,1
2018-07-03T12:37:35.215Z,1
2018-07-03T12:38:42.851Z,1
2018-07-03T12:39:50.767Z,1
2018-07-03T12:40:58.672Z,1
2018-07-03T12:42:06.620Z,1
2018-07-03T12:43:14.245Z,1
2018-07-03T12:44:21.877Z,1
2018-07-03T12:45:29.510Z,1
2018-07-03T12:46:37.444Z,1
2018-07-03T12:47:45.339Z,1
2018-07-03T12:48:53.261Z,1
2018-07-03T12:50:01.171Z,1
2018-07-03T12:51:08.797Z,1
2018-07-03T12:52:16.699Z,1
2018-07-03T12:53:24.600Z,1
2018-07-03T12:54:32.515Z,1
2018-07-03T12:55:40.411Z,1
2018-07-03T12:56:48.307Z,1
2018-07-03T12:57:56.206Z,1
2018-07-03T12:59:04.116Z,1
2018-07-03T13:00:12.013Z,1
2018-07-03T13:01:19.915Z,1
2018-07-03T13:02:27.808Z,1
2018-07-03T13:03:35.714Z,1
2018-07-03T13:04:43.616Z,1
2018-07-03T13:05:51.520Z,1
2018-07-03T13:06:59.442Z,1
2018-07-03T13:08:07.395Z,1
2018-07-03T13:09:15.549Z,1
2018-07-03T13:10:23.459Z,1
2018-07-03T13:11:31.354Z,1
2018-07-03T13:12:38.977Z,1
2018-07-03T13:13:46.902Z,1
2018-07-03T13:14:54.808Z,1
2018-07-03T13:16:02.717Z,1
2018-07-03T13:17:10.637Z,1
2018-07-03T13:18:18.571Z,1
2018-07-03T13:19:26.471Z,1
2018-07-03T13:20:34.095Z,1
2018-07-03T13:21:42.003Z,1
2018-07-03T13:22:49.641Z,1
2018-07-03T13:23:57.465Z,1
2018-07-03T13:25:05.091Z,1
2018-07-03T13:26:13.013Z,1
2018-07-03T13:27:20.938Z,1
2018-07-03T13:28:28.848Z,1
2018-07-03T13:29:36.757Z,1
2018-07-03T13:30:44.660Z,1
2018-07-03T13:31:52.559Z,1
2018-07-03T13:33:00.487Z,1
2018-07-03T13:34:08.398Z,1
2018-07-03T13:35:16.320Z,1
2018-07-03T13:36:24.249Z,1
2018-07-03T13:37:32.222Z,1
2018-07-03T13:38:40.132Z,1
2018-07-03T13:39:47.760Z,1
2018-07-03T13:40:55.698Z,1
2018-07-03T13:42:03.360Z,1
2018-07-03T13:43:11.321Z,1
2018-07-03T13:44:19.225Z,1
2018-07-03T13:45:26.591Z,1
2018-07-03T13:46:34.498Z,1
2018-07-03T13:47:42.410Z,1
2018-07-03T13:48:50.324Z,1
2018-07-03T13:49:57.957Z,1
2018-07-03T13:51:05.859Z,1
2018-07-03T13:52:13.489Z,1
2018-07-03T13:53:21.391Z,1
2018-07-03T13:54:29.303Z,1
2018-07-03T13:55:37.208Z,1
2018-07-03T13:56:45.389Z,1
2018-07-03T13:57:53.015Z,1
2018-07-03T13:59:00.918Z,1
2018-07-03T14:00:08.813Z,1
2018-07-03T14:01:15.895Z,1
2018-07-03T14:02:23.794Z,1
2018-07-03T14:03:31.689Z,1
2018-07-03T14:04:39.614Z,1
2018-07-03T14:05:47.519Z,1
2018-07-03T14:06:55.430Z,1
2018-07-03T14:08:03.330Z,1
2018-07-03T14:09:11.268Z,1
2018-07-03T14:10:19.175Z,1
2018-07-03T14:11:27.083Z,1
2018-07-03T14:12:34.735Z,1
2018-07-03T14:13:42.647Z,1
2018-07-03T14:14:50.288Z,1
2018-07-03T14:15:58.195Z,1
2018-07-03T14:17:06.119Z,1
2018-07-03T14:18:14.031Z,1
2018-07-03T14:19:21.937Z,1
2018-07-03T14:20:29.571Z,1
2018-07-03T14:21:37.478Z,1
2018-07-03T14:22:45.378Z,1
2018-07-03T14:23:53.281Z,1
2018-07-03T14:25:01.180Z,1
2018-07-03T14:26:09.104Z,1
2018-07-03T14:27:17.150Z,1
2018-07-03T14:28:25.051Z,1
2018-07-03T14:29:32.990Z,1
2018-07-03T14:30:40.902Z,1
2018-07-03T14:32:56.394Z,1
2018-07-03T14:34:04.328Z,1
2018-07-03T14:35:12.232Z,1
2018-07-03T14:36:20.198Z,1
2018-07-03T14:37:28.205Z,1
2018-07-03T14:38:35.822Z,1
2018-07-03T14:39:43.727Z,1
2018-07-03T14:40:51.625Z,1
2018-07-03T14:41:58.985Z,1
2018-07-03T14:43:06.893Z,1
2018-07-03T14:44:14.522Z,1
2018-07-03T14:45:22.432Z,1
2018-07-03T14:46:30.334Z,1
2018-07-03T14:47:38.246Z,1
2018-07-03T14:48:45.878Z,1
2018-07-03T14:49:53.780Z,1
2018-07-03T14:51:01.710Z,1
2018-07-03T14:52:09.609Z,1
2018-07-03T14:53:16.961Z,1
2018-07-03T14:54:24.868Z,1
2018-07-03T14:55:32.776Z,1
2018-07-03T14:56:40.708Z,1
2018-07-03T14:57:48.345Z,1
2018-07-03T14:58:56.240Z,1
2018-07-03T15:00:04.154Z,1
2018-07-03T15:01:12.063Z,1
2018-07-03T15:02:19.820Z,1
2018-07-03T15:03:28.125Z,1
2018-07-03T15:04:36.025Z,1
2018-07-03T15:05:43.645Z,1
2018-07-03T15:06:51.550Z,1
2018-07-03T15:07:59.456Z,1
2018-07-03T15:09:07.429Z,1
2018-07-03T15:10:15.476Z,1
2018-07-03T15:11:23.371Z,1
2018-07-03T15:12:31.294Z,1
2018-07-03T15:13:40.348Z,1
2018-07-03T15:14:48.283Z,1
2018-07-03T15:15:56.326Z,1
2018-07-03T15:17:04.227Z,1
2018-07-03T22:00:07.049Z,33.6
2018-07-03T22:01:14.681Z,34.2
2018-07-03T22:02:22.573Z,34.6
2018-07-03T22:03:30.469Z,33
2018-07-03T22:04:38.361Z,33.4
2018-07-03T22:05:46.462Z,33.6
2018-07-03T22:06:54.080Z,33.9
2018-07-03T22:08:01.975Z,33.5
2018-07-03T22:09:09.880Z,31.5
2018-07-03T22:10:17.775Z,31.8
2018-07-03T22:11:25.661Z,35
2018-07-03T22:12:33.553Z,34.2
2018-07-03T22:13:41.183Z,34.6
2018-07-03T22:14:49.074Z,36.9
2018-07-03T22:15:56.691Z,31.3
2018-07-03T22:17:04.581Z,35.5
2018-07-03T22:18:12.466Z,32.6
2018-07-03T22:19:20.348Z,29.6
2018-07-03T22:20:28.234Z,34.8
2018-07-03T22:21:36.123Z,35.4
2018-07-03T22:22:44.025Z,34
2018-07-03T22:23:51.924Z,36.7
2018-07-03T22:24:59.803Z,36.8
2018-07-03T22:26:07.426Z,38.9
2018-07-03T22:27:15.342Z,42.9
2018-07-03T22:28:23.437Z,41.9
2018-07-03T22:29:31.343Z,38.2
2018-07-03T22:30:39.231Z,45
2018-07-03T22:31:46.847Z,40.9
2018-07-03T22:32:54.737Z,37.4
2018-07-03T22:34:02.630Z,43.9
2018-07-03T22:35:10.524Z,43
2018-07-03T22:36:18.306Z,37.3
2018-07-03T22:37:26.201Z,39.7
2018-07-03T22:38:33.811Z,41.9
2018-07-03T22:39:41.570Z,42.8
2018-07-03T22:40:49.529Z,41.4
2018-07-03T22:41:57.422Z,44
2018-07-03T22:43:05.329Z,42.1
2018-07-03T22:44:13.227Z,41.7
2018-07-03T22:45:21.125Z,44.5
2018-07-03T22:46:29.017Z,46.7
2018-07-03T22:47:36.921Z,44.7
2018-07-03T22:48:44.549Z,47
2018-07-03T22:49:52.434Z,45.4